createdAt,value
2023-01-15T00:00:33.713Z,8.43
2023-01-15T00:03:02.503Z,8.40
2023-01-15T00:05:37.555Z,8.80
2023-01-15T00:08:10.307Z,7.37
2023-01-15T00:10:42.230Z,14.53
2023-01-15T00:13:16.333Z,6.13
2023-01-15T00:15:52.805Z,7.50
2023-01-15T00:18:27.802Z,6.80
2023-01-15T00:21:03.302Z,7.10
2023-01-15T00:23:58.106Z,10.90
2023-01-15T00:26:52.190Z,7.80
2023-01-15T00:29:26.580Z,6.70
2023-01-15T00:32:04.870Z,7.53
2023-01-15T00:34:33.659Z,9.77
2023-01-15T00:37:03.613Z,6.00
2023-01-15T00:39:37.207Z,7.50
2023-01-15T00:42:07.945Z,6.23
2023-01-15T00:44:46.792Z,9.03
2023-01-15T00:47:16.100Z,6.90
2023-01-15T00:49:50.390Z,6.93
2023-01-15T00:52:19.756Z,8.53
2023-01-15T00:54:50.046Z,6.93
2023-01-15T00:57:21.571Z,7.13
2023-01-15T00:59:56.430Z,10.27
2023-01-15T01:02:27.957Z,8.10
2023-01-15T01:04:56.584Z,8.93
2023-01-15T01:07:28.219Z,10.10
2023-01-15T01:09:59.384Z,9.87
2023-01-15T01:12:31.173Z,8.90
2023-01-15T01:15:08.484Z,7.90
2023-01-15T01:17:49.335Z,8.03
2023-01-15T01:20:30.078Z,11.37
2023-01-15T01:23:01.915Z,8.60
2023-01-15T01:25:33.922Z,7.40
2023-01-15T01:28:07.936Z,9.13
2023-01-15T01:30:42.744Z,8.33
2023-01-15T01:33:16.744Z,8.70
2023-01-15T01:35:49.893Z,11.10
2023-01-15T01:38:20.236Z,9.57
2023-01-15T01:40:53.942Z,9.10
2023-01-15T01:43:24.668Z,8.53
2023-01-15T01:46:06.057Z,8.97
2023-01-15T01:48:43.467Z,8.27
2023-01-15T01:51:20.933Z,7.13
2023-01-15T01:53:57.668Z,9.03
2023-01-15T01:56:27.215Z,8.57
2023-01-15T01:58:58.926Z,11.83
2023-01-15T02:01:30.135Z,11.07
2023-01-15T02:04:00.257Z,9.30
2023-01-15T02:06:33.297Z,11.23
2023-01-15T02:09:08.968Z,8.40
2023-01-15T02:11:38.590Z,8.63
2023-01-15T02:14:12.505Z,9.50
2023-01-15T02:17:00.870Z,12.93
2023-01-15T02:19:40.718Z,9.83
2023-01-15T02:22:17.964Z,11.10
2023-01-15T02:24:59.280Z,8.87
2023-01-15T02:27:31.400Z,8.70
2023-01-15T02:30:07.076Z,7.97
2023-01-15T02:32:48.039Z,9.83
2023-01-15T02:35:32.177Z,9.43
2023-01-15T02:38:07.531Z,7.90
2023-01-15T02:40:40.997Z,9.50
2023-01-15T02:43:16.599Z,10.10
2023-01-15T02:46:00.137Z,7.30
2023-01-15T02:48:34.448Z,7.03
2023-01-15T02:51:10.057Z,8.10
2023-01-15T02:53:45.213Z,7.53
2023-01-15T02:56:22.007Z,6.50
2023-01-15T02:58:59.338Z,6.83
2023-01-15T03:01:35.432Z,5.83
2023-01-15T03:04:12.709Z,5.47
2023-01-15T03:06:48.583Z,6.57
2023-01-15T03:12:11.779Z,5.67
2023-01-15T03:14:58.216Z,7.70
2023-01-15T03:17:31.516Z,6.47
2023-01-15T03:20:09.545Z,8.73
2023-01-15T03:22:44.151Z,10.40
2023-01-15T03:25:23.156Z,6.67
2023-01-15T03:28:05.632Z,6.50
2023-01-15T03:30:48.105Z,7.30
2023-01-15T03:33:19.326Z,7.60
2023-01-15T03:36:01.407Z,5.63
2023-01-15T03:38:40.105Z,7.10
2023-01-15T03:41:21.690Z,8.37
2023-01-15T03:44:11.268Z,6.40
2023-01-15T03:47:04.405Z,6.67
2023-01-15T03:49:44.732Z,6.30
2023-01-15T03:52:48.265Z,5.70
2023-01-15T03:55:22.581Z,6.80
2023-01-15T03:58:15.630Z,5.50
2023-01-15T04:00:53.828Z,7.30
2023-01-15T04:03:31.258Z,6.00
2023-01-15T04:06:02.412Z,6.70
2023-01-15T04:08:36.165Z,8.70
2023-01-15T04:11:07.115Z,4.83
2023-01-15T04:13:44.017Z,6.37
2023-01-15T04:16:27.209Z,9.80
2023-01-15T04:19:04.774Z,6.10
2023-01-15T04:21:38.374Z,7.50
2023-01-15T04:24:09.505Z,5.63
2023-01-15T04:26:39.948Z,6.77
2023-01-15T04:29:20.369Z,7.40
2023-01-15T04:31:52.709Z,6.43
2023-01-15T04:34:30.236Z,9.93
2023-01-15T04:37:02.102Z,5.77
2023-01-15T04:39:31.143Z,5.73
2023-01-15T04:42:18.969Z,7.77
2023-01-15T04:44:50.496Z,8.07
2023-01-15T04:47:22.205Z,7.63
2023-01-15T04:49:57.763Z,9.10
2023-01-15T04:52:32.284Z,7.60
2023-01-15T04:55:03.307Z,6.53
2023-01-15T04:57:40.475Z,8.07
2023-01-15T05:00:19.910Z,7.40
2023-01-15T05:02:49.450Z,7.13
2023-01-15T05:05:25.291Z,7.30
2023-01-15T05:07:57.256Z,6.33
2023-01-15T05:10:28.469Z,7.13
2023-01-15T05:12:57.812Z,6.83
2023-01-15T05:15:31.639Z,6.27
2023-01-15T05:18:01.084Z,5.80
2023-01-15T05:20:36.327Z,4.83
2023-01-15T05:23:05.567Z,6.13
2023-01-15T05:25:38.644Z,7.00
2023-01-15T05:28:08.032Z,4.73
2023-01-15T05:30:39.270Z,5.87
2023-01-15T05:33:11.580Z,5.87
2023-01-15T05:35:45.667Z,11.60
2023-01-15T05:38:15.870Z,6.47
2023-01-15T05:40:45.907Z,6.10
2023-01-15T05:43:24.042Z,5.57
2023-01-15T05:45:53.820Z,6.23
2023-01-15T05:48:27.850Z,5.10
2023-01-15T05:51:11.662Z,4.93
2023-01-15T05:53:42.725Z,5.60
2023-01-15T05:56:19.952Z,6.00
2023-01-15T05:58:50.417Z,7.57
2023-01-15T06:01:22.474Z,5.90
2023-01-15T06:03:54.140Z,6.10
2023-01-15T06:06:42.207Z,7.47
2023-01-15T06:09:18.892Z,9.37
2023-01-15T06:11:50.519Z,5.40
2023-01-15T06:14:19.405Z,6.00
2023-01-15T06:16:51.478Z,4.80
2023-01-15T06:19:22.010Z,5.50
2023-01-15T06:21:52.608Z,5.30
2023-01-15T06:24:25.007Z,6.00
2023-01-15T06:26:53.995Z,6.07
2023-01-15T06:29:23.298Z,6.47
2023-01-15T06:32:01.830Z,6.00
2023-01-15T06:34:33.691Z,5.40
2023-01-15T06:37:04.769Z,4.73
2023-01-15T06:39:42.052Z,4.43
2023-01-15T06:42:28.303Z,5.63
2023-01-15T06:45:17.815Z,6.97
2023-01-15T06:47:56.259Z,4.30
2023-01-15T06:50:26.000Z,4.20
2023-01-15T06:52:58.978Z,6.57
2023-01-15T06:55:32.432Z,4.43
2023-01-15T06:58:04.195Z,5.90
2023-01-15T07:00:37.755Z,6.27
2023-01-15T07:03:07.682Z,5.00
2023-01-15T07:05:37.300Z,5.30
2023-01-15T07:08:09.582Z,6.40
2023-01-15T07:10:41.465Z,4.40
2023-01-15T07:13:16.000Z,6.27
2023-01-15T07:15:47.635Z,4.63
2023-01-15T07:18:19.353Z,4.80
2023-01-15T07:20:55.920Z,4.80
2023-01-15T07:23:36.963Z,4.43
2023-01-15T07:26:09.135Z,5.17
2023-01-15T07:28:43.117Z,5.70
2023-01-15T07:31:13.032Z,4.43
2023-01-15T07:33:50.612Z,3.63
2023-01-15T07:36:22.481Z,5.40
2023-01-15T07:39:08.066Z,4.00
2023-01-15T07:41:56.667Z,5.77
2023-01-15T07:44:45.948Z,4.90
2023-01-15T07:47:39.394Z,6.63
2023-01-15T07:50:11.723Z,11.20
2023-01-15T07:52:45.620Z,5.23
2023-01-15T07:55:27.013Z,6.63
2023-01-15T07:57:56.370Z,7.70
2023-01-15T08:00:38.190Z,6.50
2023-01-15T08:03:09.651Z,4.63
2023-01-15T08:05:40.683Z,3.90
2023-01-15T08:08:19.376Z,4.70
2023-01-15T08:11:09.928Z,5.03
2023-01-15T08:13:58.460Z,7.73
2023-01-15T08:16:27.324Z,8.10
2023-01-15T08:18:56.969Z,5.60
2023-01-15T08:21:27.378Z,6.60
2023-01-15T08:23:59.011Z,5.87
2023-01-15T08:26:32.093Z,7.10
2023-01-15T08:29:05.819Z,4.63
2023-01-15T08:31:37.766Z,4.40
2023-01-15T08:34:15.922Z,6.43
2023-01-15T08:36:44.340Z,6.77
2023-01-15T08:39:24.785Z,6.37
2023-01-15T08:41:56.630Z,5.23
2023-01-15T08:44:27.420Z,6.90
2023-01-15T08:47:05.757Z,6.07
2023-01-15T08:49:36.238Z,7.10
2023-01-15T08:52:08.008Z,4.80
2023-01-15T08:54:41.993Z,5.67
2023-01-15T08:57:26.286Z,13.03
2023-01-15T08:59:57.536Z,4.53
2023-01-15T09:02:38.423Z,5.13
2023-01-15T09:05:07.852Z,6.13
2023-01-15T09:07:40.017Z,5.30
2023-01-15T09:10:10.507Z,4.33
2023-01-15T09:12:43.274Z,7.20
2023-01-15T09:15:12.870Z,4.90
2023-01-15T09:17:54.830Z,5.80
2023-01-15T09:20:27.443Z,4.93
2023-01-15T09:22:56.207Z,6.43
2023-01-15T09:25:32.799Z,5.57
2023-01-15T09:28:05.266Z,4.80
2023-01-15T09:30:42.089Z,4.27
2023-01-15T09:33:12.615Z,5.43
2023-01-15T09:35:49.665Z,4.90
2023-01-15T09:38:24.807Z,5.73
2023-01-15T09:41:03.534Z,5.40
2023-01-15T09:43:51.194Z,4.10
2023-01-15T09:46:23.206Z,4.60
2023-01-15T09:49:04.549Z,4.80
2023-01-15T09:51:38.878Z,5.90
2023-01-15T09:54:26.702Z,8.07
2023-01-15T09:56:58.583Z,4.30
2023-01-15T09:59:34.969Z,8.27
2023-01-15T10:02:18.943Z,5.10
2023-01-15T10:04:57.500Z,5.43
2023-01-15T10:07:38.154Z,3.77
2023-01-15T10:10:18.077Z,4.63
2023-01-15T10:12:48.881Z,4.63
2023-01-15T10:15:44.168Z,5.67
2023-01-15T10:18:16.934Z,4.87
2023-01-15T10:21:08.984Z,6.87
2023-01-15T10:23:46.593Z,4.13
2023-01-15T10:26:20.344Z,7.23
2023-01-15T10:29:07.260Z,4.50
2023-01-15T10:31:55.055Z,7.17
2023-01-15T10:34:58.980Z,4.40
2023-01-15T10:37:34.885Z,7.00
2023-01-15T10:40:21.434Z,5.53
2023-01-15T10:43:01.177Z,5.80
2023-01-15T10:45:34.141Z,5.80
2023-01-15T10:48:10.224Z,5.10
2023-01-15T10:50:40.589Z,4.80
2023-01-15T10:53:17.787Z,4.97
2023-01-15T10:55:51.426Z,6.33
2023-01-15T10:58:29.068Z,8.30
2023-01-15T11:01:05.907Z,7.63
2023-01-15T11:03:38.599Z,4.80
2023-01-15T11:06:16.790Z,5.47
2023-01-15T11:12:04.659Z,4.77
2023-01-15T11:14:55.315Z,4.40
2023-01-15T11:17:44.659Z,7.07
2023-01-15T11:20:28.703Z,5.17
2023-01-15T11:23:06.086Z,6.80
2023-01-15T11:25:36.840Z,4.73
2023-01-15T11:28:09.936Z,9.47
2023-01-15T11:30:42.349Z,5.00
2023-01-15T11:33:29.006Z,5.00
2023-01-15T11:36:02.286Z,9.30
2023-01-15T11:38:35.849Z,6.80
2023-01-15T11:41:06.495Z,6.67
2023-01-15T11:43:54.650Z,8.83
2023-01-15T11:46:48.102Z,4.57
2023-01-15T11:49:37.664Z,7.03
2023-01-15T11:52:17.939Z,8.07
2023-01-15T11:54:51.181Z,7.97
2023-01-15T11:57:32.930Z,7.90
2023-01-15T12:00:06.153Z,7.50
2023-01-15T12:02:41.847Z,6.23
2023-01-15T12:05:22.385Z,6.50
2023-01-15T12:07:56.873Z,7.23
2023-01-15T12:10:54.900Z,6.83
2023-01-15T12:13:32.877Z,8.20
2023-01-15T12:16:06.745Z,7.00
2023-01-15T12:18:59.034Z,5.17
2023-01-15T12:22:06.445Z,8.70
2023-01-15T12:25:37.153Z,5.90
2023-01-15T12:28:13.351Z,8.00
2023-01-15T12:30:56.282Z,7.63
2023-01-15T12:33:38.656Z,6.43
2023-01-15T12:36:15.979Z,6.93
2023-01-15T12:38:54.939Z,8.90
2023-01-15T12:41:56.164Z,7.80
2023-01-15T12:44:50.509Z,10.00
2023-01-15T12:47:23.908Z,7.50
2023-01-15T12:49:59.247Z,5.87
2023-01-15T12:52:32.393Z,6.47
2023-01-15T12:55:08.449Z,7.33
2023-01-15T12:57:44.049Z,8.23
2023-01-15T13:00:19.267Z,6.83
2023-01-15T13:03:12.122Z,6.60
2023-01-15T13:05:54.114Z,6.50
2023-01-15T13:08:26.688Z,6.83
2023-01-15T13:11:02.153Z,8.63
2023-01-15T13:13:42.425Z,6.20
2023-01-15T13:16:26.366Z,8.70
2023-01-15T13:19:07.983Z,9.07
2023-01-15T13:21:38.319Z,6.40
2023-01-15T13:24:35.047Z,8.50
2023-01-15T13:27:25.068Z,7.37
2023-01-15T13:30:20.453Z,6.13
2023-01-15T13:32:52.635Z,8.70
2023-01-15T13:35:30.765Z,7.50
2023-01-15T13:38:03.092Z,9.57
2023-01-15T13:40:36.404Z,8.67
2023-01-15T13:43:10.198Z,14.50
2023-01-15T13:45:52.404Z,10.40
2023-01-15T13:48:33.631Z,7.50
2023-01-15T13:51:05.983Z,10.70
2023-01-15T13:53:38.338Z,8.20
2023-01-15T13:56:10.520Z,8.87
2023-01-15T13:58:51.456Z,8.67
2023-01-15T14:01:27.612Z,8.90
2023-01-15T14:04:05.666Z,6.60
2023-01-15T14:06:47.463Z,7.63
2023-01-15T14:09:32.352Z,7.37
2023-01-15T14:12:24.485Z,11.53
2023-01-15T14:15:29.572Z,6.80
2023-01-15T14:18:22.522Z,13.97
2023-01-15T14:21:18.482Z,8.63
2023-01-15T14:24:10.465Z,9.33
2023-01-15T14:26:46.657Z,7.23
2023-01-15T14:29:54.205Z,9.37
2023-01-15T14:32:31.567Z,9.10
2023-01-15T14:35:18.580Z,7.80
2023-01-15T14:37:58.628Z,12.60
2023-01-15T14:40:32.469Z,12.10
2023-01-15T14:43:11.491Z,9.47
2023-01-15T14:45:43.529Z,11.93
2023-01-15T14:48:21.939Z,8.80
2023-01-15T14:50:54.589Z,11.53
2023-01-15T14:53:31.692Z,9.10
2023-01-15T14:56:14.174Z,8.23
2023-01-15T14:58:51.672Z,8.30
2023-01-15T15:01:46.207Z,8.10
2023-01-15T15:04:39.704Z,8.83
2023-01-15T15:07:15.462Z,10.37
2023-01-15T15:09:57.020Z,9.40
2023-01-15T15:12:44.747Z,9.60
2023-01-15T15:15:22.241Z,8.43
2023-01-15T15:18:07.203Z,9.77
2023-01-15T15:21:06.141Z,8.97
2023-01-15T15:23:43.516Z,7.40
2023-01-15T15:26:22.775Z,7.30
2023-01-15T15:29:02.256Z,7.40
2023-01-15T15:31:37.527Z,13.97
2023-01-15T15:34:19.955Z,13.10
2023-01-15T15:36:51.221Z,14.23
2023-01-15T15:39:26.489Z,10.67
2023-01-15T15:42:23.298Z,9.67
2023-01-15T15:45:12.025Z,8.30
2023-01-15T15:48:03.311Z,7.03
2023-01-15T15:50:38.242Z,9.27
2023-01-15T15:53:22.916Z,7.80
2023-01-15T15:55:55.395Z,8.13
2023-01-15T15:58:42.429Z,9.43
2023-01-15T16:01:13.112Z,9.43
2023-01-15T16:04:26.153Z,8.17
2023-01-15T16:06:56.213Z,8.60
2023-01-15T16:09:29.040Z,8.73
2023-01-15T16:12:11.406Z,10.77
2023-01-15T16:14:42.143Z,12.37
2023-01-15T16:17:21.826Z,8.10
2023-01-15T16:19:52.257Z,13.50
2023-01-15T16:22:32.862Z,7.00
2023-01-15T16:25:07.046Z,7.70
2023-01-15T16:27:38.619Z,5.63
2023-01-15T16:30:24.540Z,7.97
2023-01-15T16:33:03.643Z,5.40
2023-01-15T16:35:37.588Z,4.40
2023-01-15T16:38:13.443Z,3.43
2023-01-15T16:40:52.799Z,6.00
2023-01-15T16:43:30.106Z,4.33
2023-01-15T16:46:08.513Z,3.10
2023-01-15T16:48:47.468Z,2.07
2023-01-15T16:51:33.760Z,2.53
2023-01-15T16:54:07.956Z,2.90
2023-01-15T16:56:59.910Z,2.80
2023-01-15T17:00:06.037Z,3.83
2023-01-15T17:02:48.757Z,3.03
2023-01-15T17:05:28.533Z,2.43
2023-01-15T17:08:00.645Z,5.43
2023-01-15T17:10:39.286Z,4.03
2023-01-15T17:13:25.462Z,3.27
2023-01-15T17:16:24.816Z,4.77
2023-01-15T17:18:57.500Z,3.00
2023-01-15T17:21:29.991Z,1.90
2023-01-15T17:24:07.071Z,2.27
2023-01-15T17:26:47.522Z,2.07
2023-01-15T17:29:23.213Z,1.60
2023-01-15T17:32:07.913Z,2.07
2023-01-15T17:34:37.151Z,2.77
2023-01-15T17:37:11.843Z,3.67
2023-01-15T17:39:50.279Z,3.23
2023-01-15T17:42:35.869Z,2.43
2023-01-15T17:45:14.562Z,1.80
2023-01-15T17:47:50.082Z,1.60
2023-01-15T17:50:23.356Z,1.43
2023-01-15T17:53:01.803Z,2.50
2023-01-15T17:55:50.511Z,2.00
2023-01-15T17:58:44.900Z,1.90
2023-01-15T18:01:42.921Z,2.20
2023-01-15T18:04:47.425Z,2.40
2023-01-15T18:07:28.759Z,1.93
2023-01-15T18:10:04.584Z,2.60
2023-01-15T18:12:36.551Z,3.50
2023-01-15T18:15:21.227Z,3.10
2023-01-15T18:17:59.701Z,4.77
2023-01-15T18:20:36.280Z,4.43
2023-01-15T18:23:11.103Z,5.30
2023-01-15T18:25:50.182Z,5.30
2023-01-15T18:28:27.419Z,4.70
2023-01-15T18:31:08.192Z,2.83
2023-01-15T18:33:39.773Z,2.37
2023-01-15T18:36:25.403Z,2.20
2023-01-15T18:38:56.231Z,1.33
2023-01-15T18:41:59.514Z,1.77
2023-01-15T18:44:52.483Z,2.00
2023-01-15T18:47:28.247Z,1.50
2023-01-15T18:49:59.742Z,3.43
2023-01-15T18:52:49.075Z,1.90
2023-01-15T18:55:24.697Z,1.63
2023-01-15T18:57:56.235Z,1.40
2023-01-15T19:00:35.553Z,1.77
2023-01-15T19:03:12.682Z,1.00
2023-01-15T19:05:48.855Z,1.30
2023-01-15T19:08:25.736Z,1.40
2023-01-15T19:11:06.072Z,1.30
2023-01-15T19:13:38.541Z,1.60
2023-01-15T19:16:30.178Z,1.87
2023-01-15T19:19:06.109Z,2.80
2023-01-15T19:21:38.396Z,2.20
2023-01-15T19:24:21.652Z,2.23
2023-01-15T19:26:56.418Z,7.57
2023-01-15T19:29:32.050Z,4.50
2023-01-15T19:32:11.989Z,7.40
2023-01-15T19:34:42.887Z,6.53
2023-01-15T19:37:22.255Z,2.47
2023-01-15T19:39:54.043Z,2.40
2023-01-15T19:42:43.113Z,2.20
2023-01-15T19:45:31.590Z,2.90
2023-01-15T19:48:23.778Z,3.70
2023-01-15T19:50:55.962Z,1.73
2023-01-15T19:53:39.090Z,1.73
2023-01-15T19:56:22.922Z,1.93
2023-01-15T19:59:00.999Z,1.63
2023-01-15T20:01:41.781Z,1.40
2023-01-15T20:04:24.515Z,1.77
2023-01-15T20:07:05.268Z,2.70
2023-01-15T20:09:40.822Z,2.30
2023-01-15T20:12:31.797Z,1.67
2023-01-15T20:15:09.132Z,1.40
2023-01-15T20:17:45.689Z,1.10
2023-01-15T20:20:22.998Z,1.43
2023-01-15T20:23:08.592Z,2.20
2023-01-15T20:25:52.244Z,1.80
2023-01-15T20:28:33.498Z,1.73
2023-01-15T20:31:30.577Z,1.50
2023-01-15T20:34:04.533Z,1.60
2023-01-15T20:36:41.111Z,1.43
2023-01-15T20:39:37.956Z,1.47
2023-01-15T20:42:25.735Z,2.47
2023-01-15T20:45:12.496Z,1.80
2023-01-15T20:48:02.670Z,1.83
2023-01-15T20:50:44.942Z,1.00
2023-01-15T20:53:25.478Z,2.83
2023-01-15T20:56:00.198Z,1.23
2023-01-15T20:58:41.575Z,1.53
2023-01-15T21:01:13.370Z,1.13
2023-01-15T21:03:43.551Z,1.93
2023-01-15T21:06:24.669Z,1.90
2023-01-15T21:09:03.504Z,1.90
2023-01-15T21:11:40.915Z,2.53
2023-01-15T21:14:10.199Z,1.53
2023-01-15T21:16:55.285Z,3.93
2023-01-15T21:19:26.689Z,1.67
2023-01-15T21:21:57.363Z,2.17
2023-01-15T21:24:30.351Z,2.40
2023-01-15T21:26:59.622Z,1.73
2023-01-15T21:29:31.524Z,2.60
2023-01-15T21:32:04.220Z,3.27
2023-01-15T21:34:34.809Z,1.70
2023-01-15T21:37:05.816Z,2.40
2023-01-15T21:39:37.913Z,8.30
2023-01-15T21:42:25.371Z,2.30
2023-01-15T21:44:56.115Z,1.87
2023-01-15T21:47:31.486Z,1.67
2023-01-15T21:50:08.768Z,1.87
2023-01-15T21:52:37.226Z,2.20
2023-01-15T21:55:08.621Z,2.30
2023-01-15T21:57:42.093Z,2.80
2023-01-15T22:00:21.393Z,2.00
2023-01-15T22:03:05.805Z,1.80
2023-01-15T22:05:34.383Z,2.00
2023-01-15T22:08:10.855Z,2.50
2023-01-15T22:10:42.654Z,1.90
2023-01-15T22:13:16.641Z,2.90
2023-01-15T22:15:47.762Z,1.93
2023-01-15T22:18:29.660Z,8.03
2023-01-15T22:21:04.142Z,1.67
2023-01-15T22:23:37.987Z,2.30
2023-01-15T22:26:09.040Z,2.80
2023-01-15T22:28:38.313Z,1.20
2023-01-15T22:31:14.977Z,1.30
2023-01-15T22:33:57.063Z,2.50
2023-01-15T22:36:28.061Z,2.30
2023-01-15T22:38:56.292Z,1.10
2023-01-15T22:41:45.338Z,1.43
2023-01-15T22:44:22.775Z,1.90
2023-01-15T22:46:54.103Z,0.87
2023-01-15T22:49:37.211Z,1.10
2023-01-15T22:52:07.586Z,1.17
2023-01-15T22:54:41.801Z,1.70
2023-01-15T22:57:10.165Z,1.60
2023-01-15T22:59:46.559Z,0.70
2023-01-15T23:02:23.087Z,1.57
2023-01-15T23:05:04.061Z,0.97
2023-01-15T23:07:42.068Z,0.83
2023-01-15T23:10:20.250Z,1.43
2023-01-15T23:12:50.215Z,0.90
2023-01-15T23:15:27.619Z,0.90
2023-01-15T23:17:59.794Z,1.67
2023-01-15T23:20:37.757Z,0.77
2023-01-15T23:23:08.332Z,0.80
2023-01-15T23:25:40.083Z,0.93
2023-01-15T23:28:09.732Z,1.27
2023-01-15T23:30:39.652Z,1.00
2023-01-15T23:33:10.533Z,0.90
2023-01-15T23:35:42.641Z,1.20
2023-01-15T23:38:12.474Z,1.50
2023-01-15T23:40:53.140Z,1.53
2023-01-15T23:43:40.521Z,1.60
2023-01-15T23:46:37.569Z,1.13
2023-01-15T23:49:16.993Z,1.27
2023-01-15T23:52:00.824Z,1.33
2023-01-15T23:54:31.582Z,0.90
2023-01-15T23:57:12.437Z,1.60
2023-01-15T23:59:49.007Z,1.37
